createdAt,value
2018-01-26T10:13:32.746Z,45.40
2018-01-26T10:15:59.138Z,35.00
2018-01-26T10:18:25.573Z,38.25
2018-01-26T10:20:52.006Z,32.85
2018-01-26T10:23:18.441Z,32.42
2018-01-26T10:25:44.854Z,30.92
2018-01-26T10:28:12.038Z,31.08
2018-01-26T10:30:38.456Z,30.37
2018-01-26T10:35:31.127Z,33.25
2018-01-26T10:37:57.520Z,32.63
2018-01-26T10:40:23.937Z,35.53
2018-01-26T10:42:50.362Z,32.20
2018-01-26T10:45:16.855Z,30.67
2018-01-26T10:47:44.093Z,32.83
2018-01-26T10:50:11.327Z,31.45
2018-01-26T10:52:37.754Z,33.13
2018-01-26T10:55:04.173Z,33.28
2018-01-26T10:57:30.609Z,33.17
2018-01-26T10:59:57.018Z,35.10
2018-01-26T11:02:23.427Z,29.08
2018-01-26T11:04:49.872Z,29.48
2018-01-26T11:07:16.285Z,34.58
2018-01-26T11:09:43.446Z,33.03
2018-01-26T11:12:10.574Z,33.75
2018-01-26T11:14:37.057Z,34.30
2018-01-26T11:17:03.665Z,30.10
2018-01-26T11:19:30.825Z,35.03
2018-01-26T11:21:58.024Z,35.85
2018-01-26T11:24:24.454Z,31.02
2018-01-26T11:26:50.866Z,31.23
2018-01-26T11:29:17.281Z,28.40
2018-01-26T11:31:43.690Z,30.23
2018-01-26T11:34:10.129Z,29.40
2018-01-26T11:36:36.549Z,29.35
2018-01-26T11:39:03.080Z,30.08
2018-01-26T11:41:29.493Z,28.98
2018-01-26T11:43:55.913Z,27.15
2018-01-26T11:46:22.314Z,29.80
2018-01-26T11:48:49.477Z,30.48
2018-01-26T11:51:16.662Z,33.55
2018-01-26T11:53:43.058Z,34.10
2018-01-26T11:56:10.218Z,34.03
2018-01-26T11:58:37.341Z,32.05
2018-01-26T12:01:03.774Z,31.95
2018-01-26T12:03:30.178Z,29.67
2018-01-26T12:05:56.641Z,29.25
2018-01-26T12:08:23.081Z,32.22
2018-01-26T12:10:49.468Z,27.50
2018-01-26T12:13:15.881Z,36.00
2018-01-26T12:15:42.292Z,28.23
2018-01-26T12:18:09.464Z,30.65
2018-01-26T12:20:35.873Z,25.75
2018-01-26T12:23:02.255Z,31.62
2018-01-26T12:25:28.680Z,28.67
2018-01-26T12:27:55.108Z,25.10
2018-01-26T12:30:21.565Z,26.42
2018-01-26T12:32:48.003Z,30.05
2018-01-26T12:35:14.406Z,29.52
2018-01-26T12:37:40.821Z,34.30
2018-01-26T12:40:07.938Z,33.03
2018-01-26T12:42:34.376Z,29.10
2018-01-26T12:45:00.774Z,28.62
2018-01-26T12:47:27.177Z,30.30
2018-01-26T12:49:54.338Z,31.62
2018-01-26T12:52:21.486Z,33.33
2018-01-26T12:54:48.669Z,33.38
2018-01-26T12:57:15.059Z,27.37
2018-01-26T12:59:42.228Z,30.23
2018-01-26T13:02:09.461Z,34.70
2018-01-26T13:04:36.630Z,32.00
2018-01-26T13:07:03.787Z,28.65
2018-01-26T13:09:30.978Z,53.15
2018-01-26T13:11:57.385Z,34.65
2018-01-26T13:14:23.840Z,30.95
2018-01-26T13:16:50.246Z,30.55
2018-01-26T13:19:16.663Z,30.52
2018-01-26T13:21:43.806Z,29.25
2018-01-26T13:24:10.218Z,31.60
2018-01-26T13:26:36.617Z,26.10
2018-01-26T13:29:03.058Z,31.30
2018-01-26T13:31:29.494Z,28.90
2018-01-26T13:33:55.891Z,29.52
2018-01-26T13:36:23.040Z,26.85
2018-01-26T13:38:50.166Z,27.65
2018-01-26T13:41:16.577Z,27.42
2018-01-26T13:43:43.060Z,30.20
2018-01-26T13:46:10.262Z,32.15
2018-01-26T13:48:36.705Z,27.10
2018-01-26T13:51:03.157Z,28.40
2018-01-26T13:53:29.656Z,26.58
2018-01-26T13:55:56.361Z,32.22
2018-01-26T13:58:23.548Z,25.00
2018-01-26T14:00:49.930Z,25.75
2018-01-26T14:03:16.382Z,30.02
2018-01-26T14:05:43.623Z,27.20
2018-01-26T14:08:10.798Z,24.08
2018-01-26T14:10:37.957Z,25.33
2018-01-26T14:13:04.359Z,24.50
2018-01-26T14:15:30.781Z,25.23
2018-01-26T14:17:57.253Z,29.10
2018-01-26T14:20:24.405Z,32.10
2018-01-26T14:22:51.585Z,28.50
2018-01-26T14:25:18.027Z,33.08
2018-01-26T14:27:44.557Z,30.05
2018-01-26T14:30:11.013Z,28.27
2018-01-26T14:32:37.451Z,33.55
2018-01-26T14:35:03.968Z,29.48
2018-01-26T14:37:30.584Z,31.58
2018-01-26T14:39:57.010Z,27.75
2018-01-26T14:42:23.484Z,34.58
2018-01-26T14:44:49.893Z,27.40
2018-01-26T14:47:16.534Z,27.37
2018-01-26T14:49:43.056Z,28.20
2018-01-26T14:52:09.573Z,26.62
2018-01-26T14:54:36.885Z,29.45
2018-01-26T14:57:03.456Z,27.70
2018-01-26T14:59:29.923Z,29.15
2018-01-26T15:01:56.326Z,30.98
2018-01-26T15:04:23.497Z,30.75
2018-01-26T15:06:50.685Z,32.85
2018-01-26T15:09:17.085Z,28.80
2018-01-26T15:11:44.251Z,29.73
2018-01-26T15:14:10.693Z,31.17
2018-01-26T15:16:37.117Z,35.75
2018-01-26T15:19:03.558Z,32.15
2018-01-26T15:21:29.953Z,33.35
2018-01-26T15:23:57.187Z,69.03
2018-01-26T15:26:23.598Z,77.75
2018-01-26T15:28:50.100Z,52.25
2018-01-26T15:31:17.295Z,68.53
2018-01-26T15:33:43.774Z,38.35
2018-01-26T15:36:10.962Z,37.30
2018-01-26T15:38:37.393Z,32.92
2018-01-26T15:41:03.866Z,46.28
2018-01-26T15:43:30.265Z,42.00
2018-01-26T15:45:56.794Z,32.35
2018-01-26T15:48:23.984Z,31.50
2018-01-26T15:50:50.410Z,38.20
2018-01-26T15:53:16.841Z,41.55
2018-01-26T15:55:43.257Z,33.55
2018-01-26T15:58:09.726Z,33.70
2018-01-26T16:00:36.174Z,35.00
2018-01-26T16:03:02.623Z,39.53
2018-01-26T16:05:29.052Z,41.70
2018-01-26T16:07:55.488Z,37.60
2018-01-26T16:10:21.907Z,37.85
2018-01-26T16:12:48.331Z,34.78
2018-01-26T16:15:14.730Z,36.75
2018-01-26T16:17:41.157Z,39.10
2018-01-26T16:20:07.571Z,42.33
2018-01-26T16:22:34.014Z,43.50
2018-01-26T16:25:01.201Z,41.88
2018-01-26T16:27:27.585Z,40.97
2018-01-26T16:29:54.006Z,39.72
2018-01-26T16:32:20.403Z,41.67
2018-01-26T16:34:46.836Z,36.65
2018-01-26T16:37:13.250Z,37.55
2018-01-26T16:39:39.645Z,42.70
2018-01-26T16:42:06.077Z,39.63
2018-01-26T16:44:32.525Z,40.42
2018-01-26T16:46:58.966Z,40.03
2018-01-26T16:49:26.117Z,37.90
2018-01-26T16:51:53.329Z,42.88
2018-01-26T16:54:19.822Z,36.80
2018-01-26T16:56:46.991Z,38.35
2018-01-26T16:59:13.497Z,45.30
2018-01-26T17:01:40.652Z,37.77
2018-01-26T17:04:07.810Z,39.15
2018-01-26T17:06:34.972Z,38.58
2018-01-26T17:09:01.359Z,39.08
2018-01-26T17:11:27.822Z,43.28
2018-01-26T17:13:54.997Z,43.93
2018-01-26T17:16:21.454Z,46.55
2018-01-26T17:18:47.910Z,44.05
2018-01-26T17:21:14.289Z,42.92
2018-01-26T17:23:41.464Z,43.90
2018-01-26T17:26:07.855Z,46.25
2018-01-26T17:28:35.001Z,46.75
2018-01-26T17:31:01.422Z,46.45
2018-01-26T17:33:27.838Z,46.58
2018-01-26T17:35:54.221Z,47.95
2018-01-26T17:38:20.677Z,47.47
2018-01-26T17:40:47.094Z,45.40
2018-01-26T17:43:14.274Z,41.93
2018-01-26T17:45:40.693Z,47.38
2018-01-26T17:48:07.102Z,45.75
2018-01-26T17:50:34.260Z,44.78
2018-01-26T17:53:01.399Z,46.80
2018-01-26T17:55:27.854Z,44.67
2018-01-26T17:57:55.106Z,45.05
2018-01-26T18:00:22.369Z,46.70
2018-01-26T18:02:48.863Z,46.05
2018-01-26T18:05:15.305Z,48.20
2018-01-26T18:07:41.799Z,56.25
2018-01-26T18:10:08.249Z,54.42
2018-01-26T18:12:34.646Z,45.92
2018-01-26T18:15:01.108Z,45.92
2018-01-26T18:17:27.485Z,49.25
2018-01-26T18:19:54.699Z,51.83
2018-01-26T18:22:21.104Z,50.97
2018-01-26T18:24:47.517Z,51.53
2018-01-26T18:27:14.686Z,51.37
2018-01-26T18:29:41.079Z,57.78
2018-01-26T18:32:07.575Z,57.30
2018-01-26T18:34:34.115Z,48.00
2018-01-26T18:37:00.546Z,48.63
2018-01-26T18:39:27.087Z,49.95
2018-01-26T18:41:53.478Z,49.60
2018-01-26T18:44:19.934Z,50.25
2018-01-26T18:46:46.451Z,50.63
2018-01-26T18:49:13.600Z,51.28
2018-01-26T18:51:40.764Z,51.97
2018-01-26T18:54:07.898Z,52.35
2018-01-26T18:56:34.383Z,47.67
2018-01-26T18:59:00.802Z,53.10
2018-01-26T19:01:27.200Z,52.60
2018-01-26T19:03:53.665Z,51.92
2018-01-26T19:06:20.124Z,53.40
2018-01-26T19:08:46.581Z,50.28
2018-01-26T19:11:12.977Z,50.17
2018-01-26T19:13:39.438Z,50.53
2018-01-26T19:16:05.853Z,52.20
